Time;durP1;ratioP1;P1;durP2;ratioP2;P2;SDS_P1;SDS_P2;PMS_P1;PMS_P2;Temp;Humidity;BMP_temperature;BMP_pressure;BME280_temperature;BME280_humidity;BME280_pressure;Samples;Min_cycle;Max_cycle;Signal;HPM_P1;HPM_P2
2021/08/10 00:01:32;;;;;;;2.13;1.83;;;16.00;31.00;;;;;;4975165;28;20276;-66
2021/08/10 00:03:58;;;;;;;1.63;1.53;;;15.90;30.90;;;;;;4975102;28;20209;-67
2021/08/10 00:06:23;;;;;;;2.50;1.70;;;15.90;31.80;;;;;;4975136;28;20635;-67
2021/08/10 00:08:49;;;;;;;4.70;2.27;;;15.90;31.80;;;;;;4979145;28;20188;-67
2021/08/10 00:11:15;;;;;;;1.90;1.50;;;15.90;31.60;;;;;;4975465;28;20189;-67
2021/08/10 00:13:40;;;;;;;3.67;1.97;;;15.90;31.70;;;;;;4974909;28;20244;-67
2021/08/10 00:16:06;;;;;;;3.73;1.87;;;15.90;31.80;;;;;;4975107;28;20191;-67
2021/08/10 00:18:32;;;;;;;1.70;1.40;;;15.90;31.60;;;;;;4974824;28;20181;-67
2021/08/10 00:20:58;;;;;;;2.53;1.70;;;15.80;31.60;;;;;;4974286;28;20189;-67
2021/08/10 00:23:24;;;;;;;2.63;2.17;;;15.80;31.70;;;;;;4974776;28;20440;-67
2021/08/10 00:25:49;;;;;;;2.67;1.90;;;15.80;31.80;;;;;;4973648;28;20189;-67
2021/08/10 00:28:16;;;;;;;3.00;2.10;;;15.80;31.90;;;;;;4977323;28;20199;-67
2021/08/10 00:30:44;;;;;;;2.87;2.20;;;15.70;32.20;;;;;;4977258;28;20224;-67
2021/08/10 00:33:10;;;;;;;2.80;2.20;;;15.60;32.30;;;;;;4974135;28;20480;-67
2021/08/10 00:35:36;;;;;;;2.20;2.00;;;15.60;33.00;;;;;;4974584;28;20455;-67
2021/08/10 00:38:02;;;;;;;4.57;2.23;;;15.60;32.80;;;;;;4974331;28;20481;-67
2021/08/10 00:40:28;;;;;;;3.90;2.10;;;15.60;32.80;;;;;;4975677;28;20441;-67
2021/08/10 00:42:54;;;;;;;5.13;1.67;;;15.50;33.60;;;;;;4974223;28;20661;-68
2021/08/10 00:45:20;;;;;;;2.10;1.77;;;15.50;33.70;;;;;;4974633;28;20478;-68
2021/08/10 00:47:46;;;;;;;2.17;1.73;;;15.40;33.10;;;;;;4975615;28;20424;-68
2021/08/10 00:50:12;;;;;;;3.50;2.10;;;15.40;33.40;;;;;;4977025;28;20458;-67
2021/08/10 00:52:38;;;;;;;4.13;2.27;;;15.30;33.50;;;;;;4974458;28;20184;-68
2021/08/10 00:55:05;;;;;;;3.10;2.00;;;15.20;34.60;;;;;;4974540;28;20443;-67
2021/08/10 00:57:31;;;;;;;2.10;1.80;;;15.30;35.20;;;;;;4976836;28;20181;-67
2021/08/10 00:59:56;;;;;;;7.53;2.63;;;15.30;35.70;;;;;;4975186;28;20906;-67
2021/08/10 01:02:22;;;;;;;2.83;2.30;;;15.20;35.00;;;;;;4977179;28;20455;-68
2021/08/10 01:04:48;;;;;;;5.50;2.43;;;15.20;34.50;;;;;;4985929;28;20208;-67
2021/08/10 01:07:16;;;;;;;2.20;1.50;;;;;;;;;;4990120;28;20184;-67
2021/08/10 01:09:48;;;;;;;3.10;1.63;;;15.20;33.80;;;;;;4988853;28;20424;-67
2021/08/10 01:12:18;;;;;;;2.77;2.23;;;15.20;34.40;;;;;;4989977;28;20499;-67
2021/08/10 01:14:56;;;;;;;3.10;2.33;;;15.10;34.60;;;;;;4990790;28;20464;-67
2021/08/10 01:17:27;;;;;;;2.43;1.90;;;15.20;35.30;;;;;;4990851;28;20407;-66
2021/08/10 01:20:30;;;;;;;2.23;1.70;;;15.20;35.00;;;;;;4989743;28;20420;-66
2021/08/10 01:22:58;;;;;;;2.43;1.57;;;15.10;35.50;;;;;;4971544;29;20442;-66
2021/08/10 01:25:29;;;;;;;3.33;1.10;;;15.10;35.50;;;;;;4971220;29;20440;-67
2021/08/10 01:28:24;;;;;;;3.17;1.80;;;15.10;35.50;;;;;;4972843;28;20458;-67
2021/08/10 01:31:05;;;;;;;4.40;1.80;;;15.10;35.00;;;;;;4980501;28;20428;-67
2021/08/10 01:33:34;;;;;;;2.90;1.97;;;15.00;35.10;;;;;;4990155;28;20570;-67
2021/08/10 01:36:01;;;;;;;2.40;2.03;;;15.00;35.30;;;;;;4990096;28;20407;-68
2021/08/10 01:38:28;;;;;;;2.73;1.83;;;15.00;35.40;;;;;;4978219;28;20415;-67
2021/08/10 01:40:54;;;;;;;2.00;1.60;;;14.90;35.30;;;;;;4980796;28;20956;-67
2021/08/10 01:43:21;;;;;;;4.80;2.23;;;14.90;35.30;;;;;;4976629;28;20453;-67
2021/08/10 01:45:50;;;;;;;2.43;1.63;;;14.80;35.20;;;;;;4976197;28;20421;-67
2021/08/10 01:48:16;;;;;;;2.23;1.73;;;14.90;35.70;;;;;;4974185;28;20880;-70
2021/08/10 01:50:45;;;;;;;2.20;1.87;;;14.80;35.30;;;;;;4975548;28;20921;-67
2021/08/10 01:53:12;;;;;;;7.60;2.33;;;14.80;35.20;;;;;;4973605;28;20459;-68
2021/08/10 01:55:38;;;;;;;4.07;1.43;;;14.80;35.60;;;;;;4974267;28;20412;-67
2021/08/10 01:58:04;;;;;;;3.37;1.80;;;14.80;35.90;;;;;;4974862;28;20962;-67
2021/08/10 02:00:31;;;;;;;4.10;2.47;;;14.80;36.30;;;;;;4975399;28;20411;-68
2021/08/10 02:02:58;;;;;;;4.30;1.87;;;14.80;36.50;;;;;;4972804;28;20425;-68
2021/08/10 02:05:24;;;;;;;3.57;2.00;;;14.70;35.90;;;;;;4976267;28;20843;-67
2021/08/10 02:07:50;;;;;;;2.20;1.83;;;14.70;35.80;;;;;;4973166;28;20438;-68
2021/08/10 02:10:16;;;;;;;4.57;1.63;;;14.60;35.50;;;;;;4973307;28;20439;-67
2021/08/10 02:12:43;;;;;;;2.20;1.60;;;14.60;36.00;;;;;;4973499;28;20835;-67
2021/08/10 02:15:09;;;;;;;2.63;2.17;;;14.60;36.20;;;;;;4973040;28;20434;-67
2021/08/10 02:17:35;;;;;;;3.57;1.97;;;14.50;35.90;;;;;;4971713;28;20509;-68
2021/08/10 02:20:01;;;;;;;3.30;2.27;;;14.50;36.20;;;;;;4973026;28;20510;-68
2021/08/10 02:22:29;;;;;;;2.83;2.07;;;14.50;36.40;;;;;;4973389;28;20181;-67
2021/08/10 02:25:10;;;;;;;2.77;2.23;;;14.50;37.00;;;;;;4972825;28;20205;-68
2021/08/10 02:27:42;;;;;;;5.70;2.20;;;14.50;37.60;;;;;;4972817;28;20491;-67
2021/08/10 02:30:11;;;;;;;3.17;2.00;;;14.40;37.00;;;;;;4975774;28;20419;-67
2021/08/10 02:32:38;;;;;;;3.80;2.03;;;14.30;36.80;;;;;;4972675;28;20423;-68
2021/08/10 02:35:04;;;;;;;2.27;2.03;;;14.30;37.20;;;;;;4974912;28;20460;-67
2021/08/10 02:37:32;;;;;;;5.30;1.93;;;14.30;37.30;;;;;;4971031;28;20413;-67
2021/08/10 02:40:00;;;;;;;2.93;2.10;;;14.20;37.00;;;;;;4972054;28;20436;-67
2021/08/10 02:42:26;;;;;;;2.37;1.73;;;14.20;37.50;;;;;;4974154;28;20417;-67
2021/08/10 02:44:55;;;;;;;3.57;2.37;;;14.20;37.90;;;;;;4972329;28;20483;-67
2021/08/10 02:47:20;;;;;;;1.97;1.70;;;14.20;37.60;;;;;;4973415;28;20173;-67
2021/08/10 02:49:46;;;;;;;2.10;1.83;;;14.10;37.50;;;;;;4974738;28;20421;-67
2021/08/10 02:52:12;;;;;;;2.50;1.83;;;14.10;37.80;;;;;;4972594;28;20182;-67
2021/08/10 02:54:38;;;;;;;2.87;2.33;;;14.10;38.00;;;;;;4970593;28;20223;-67
2021/08/10 02:57:22;;;;;;;2.67;1.90;;;14.10;38.70;;;;;;4970496;28;20464;-67
2021/08/10 02:59:52;;;;;;;3.00;2.03;;;14.10;38.90;;;;;;4971839;28;20872;-67
2021/08/10 03:02:22;;;;;;;2.83;2.17;;;14.10;38.80;;;;;;4972650;28;20476;-67
2021/08/10 03:05:01;;;;;;;3.13;1.73;;;14.10;38.20;;;;;;4976236;28;20480;-67
2021/08/10 03:07:28;;;;;;;3.30;2.00;;;14.10;38.70;;;;;;4978078;28;20422;-67
2021/08/10 03:10:03;;;;;;;1.90;1.47;;;14.00;38.50;;;;;;4975995;28;20433;-67
2021/08/10 03:12:33;;;;;;;2.20;1.70;;;14.00;37.90;;;;;;4976492;28;20489;-67
2021/08/10 03:14:59;;;;;;;2.50;2.00;;;14.00;37.70;;;;;;4978971;28;20438;-68
2021/08/10 03:17:29;;;;;;;3.63;2.00;;;13.90;37.90;;;;;;4975858;28;20680;-67
2021/08/10 03:19:57;;;;;;;2.53;1.70;;;13.90;37.70;;;;;;4975909;28;20164;-67
2021/08/10 03:22:24;;;;;;;2.20;1.67;;;13.90;37.80;;;;;;4976847;28;20512;-67
2021/08/10 03:24:52;;;;;;;5.67;2.70;;;13.80;38.10;;;;;;4978495;28;20475;-67
2021/08/10 03:27:18;;;;;;;2.17;1.50;;;13.80;39.40;;;;;;4975766;28;20529;-67
2021/08/10 03:29:45;;;;;;;2.43;1.80;;;13.80;40.20;;;;;;4975573;28;20431;-67
2021/08/10 03:32:14;;;;;;;2.77;1.87;;;13.80;39.00;;;;;;4978265;28;20474;-67
2021/08/10 03:34:40;;;;;;;6.33;2.20;;;13.80;39.60;;;;;;4976463;28;20484;-67
2021/08/10 03:37:06;;;;;;;2.20;1.67;;;13.80;38.80;;;;;;4975427;28;20445;-68
2021/08/10 03:39:33;;;;;;;5.17;1.80;;;13.80;38.10;;;;;;4975658;28;20415;-67
2021/08/10 03:42:01;;;;;;;3.23;2.07;;;13.80;38.00;;;;;;4976902;28;20944;-67
2021/08/10 03:44:27;;;;;;;2.90;2.60;;;13.70;38.00;;;;;;4975883;28;20432;-67
2021/08/10 03:46:54;;;;;;;4.87;2.73;;;13.70;38.30;;;;;;4975430;28;20917;-68
2021/08/10 03:49:22;;;;;;;2.17;1.97;;;13.70;38.70;;;;;;4975574;28;20417;-68
2021/08/10 03:51:48;;;;;;;3.40;1.57;;;13.70;38.60;;;;;;4975955;28;20427;-68
2021/08/10 03:54:14;;;;;;;3.63;2.30;;;13.70;38.60;;;;;;4976877;28;20468;-68
2021/08/10 03:56:41;;;;;;;3.60;2.13;;;13.60;38.80;;;;;;4975458;28;20435;-68
2021/08/10 03:59:09;;;;;;;2.87;2.00;;;13.50;39.40;;;;;;4976749;28;20177;-68
2021/08/10 04:01:37;;;;;;;2.20;1.47;;;13.60;40.90;;;;;;4975478;28;20417;-68
2021/08/10 04:04:03;;;;;;;2.80;2.03;;;;;;;;;;4974173;28;20555;-68
2021/08/10 04:06:32;;;;;;;3.30;2.17;;;13.70;39.90;;;;;;4976780;28;20912;-68
2021/08/10 04:09:00;;;;;;;2.70;1.97;;;13.70;39.50;;;;;;4976343;28;20450;-68
2021/08/10 04:11:25;;;;;;;2.20;1.60;;;13.70;39.50;;;;;;4975612;28;20424;-68
2021/08/10 04:13:51;;;;;;;2.17;1.67;;;13.60;39.40;;;;;;4976853;28;20495;-68
2021/08/10 04:16:18;;;;;;;5.43;2.17;;;13.60;39.40;;;;;;4978454;28;20190;-68
2021/08/10 04:18:44;;;;;;;3.53;1.70;;;13.60;40.00;;;;;;4976654;28;20228;-69
2021/08/10 04:21:10;;;;;;;2.83;2.23;;;13.70;40.50;;;;;;4976995;28;20819;-68
2021/08/10 04:23:35;;;;;;;3.33;2.47;;;13.70;40.30;;;;;;4974711;28;20594;-68
2021/08/10 04:26:01;;;;;;;1.80;1.47;;;13.70;40.10;;;;;;4976676;28;20428;-68
2021/08/10 04:28:26;;;;;;;3.67;2.30;;;13.70;39.50;;;;;;4974834;28;20213;-68
2021/08/10 04:30:52;;;;;;;5.43;2.17;;;13.70;39.50;;;;;;4975090;28;20260;-68
2021/08/10 04:33:18;;;;;;;3.80;1.90;;;13.70;39.50;;;;;;4975485;28;20231;-68
2021/08/10 04:35:44;;;;;;;2.80;1.67;;;13.80;40.00;;;;;;4974677;28;20185;-68
2021/08/10 04:38:10;;;;;;;3.93;2.43;;;13.80;39.50;;;;;;4974462;28;20221;-68
2021/08/10 04:40:35;;;;;;;2.93;2.33;;;13.90;39.60;;;;;;4977233;28;20189;-68
2021/08/10 04:43:01;;;;;;;3.13;2.07;;;14.00;39.00;;;;;;4974830;28;20424;-68
2021/08/10 04:45:27;;;;;;;3.53;2.20;;;14.00;38.40;;;;;;4974550;28;20863;-68
2021/08/10 04:47:53;;;;;;;3.30;2.10;;;14.00;38.30;;;;;;4975635;28;20200;-68
2021/08/10 04:50:20;;;;;;;3.97;2.70;;;14.00;38.40;;;;;;4974987;28;20422;-68
2021/08/10 04:52:45;;;;;;;2.97;2.17;;;14.00;38.90;;;;;;4974611;28;20448;-68
2021/08/10 04:55:11;;;;;;;9.70;2.70;;;14.20;39.90;;;;;;4976607;28;20931;-68
2021/08/10 04:57:37;;;;;;;6.83;2.87;;;14.20;39.10;;;;;;4973954;28;20671;-68
2021/08/10 05:00:05;;;;;;;2.53;2.00;;;14.30;39.10;;;;;;4973986;28;20909;-68
2021/08/10 05:02:30;;;;;;;5.10;2.20;;;14.40;39.10;;;;;;4975856;28;20174;-68
2021/08/10 05:04:56;;;;;;;3.03;2.00;;;14.40;39.20;;;;;;4977745;28;20435;-67
2021/08/10 05:07:21;;;;;;;5.03;2.03;;;14.50;38.40;;;;;;4974205;28;20210;-67
2021/08/10 05:09:47;;;;;;;6.33;2.63;;;14.60;38.80;;;;;;4974792;28;20235;-67
2021/08/10 05:12:13;;;;;;;3.53;2.17;;;14.60;37.10;;;;;;4976386;28;20177;-67
2021/08/10 05:14:38;;;;;;;10.10;2.30;;;14.70;36.10;;;;;;4974622;28;20245;-68
2021/08/10 05:17:04;;;;;;;2.70;2.50;;;14.70;36.80;;;;;;4973101;28;20188;-68
2021/08/10 05:19:30;;;;;;;3.90;2.70;;;14.70;36.70;;;;;;4974012;28;20238;-66
2021/08/10 05:21:56;;;;;;;2.77;2.00;;;14.80;36.30;;;;;;4974075;28;20533;-68
2021/08/10 05:24:21;;;;;;;4.60;2.07;;;14.80;36.10;;;;;;4972701;28;20239;-68
2021/08/10 05:26:47;;;;;;;4.50;3.20;;;14.80;36.70;;;;;;4973510;28;20554;-68
2021/08/10 05:29:12;;;;;;;5.63;2.90;;;14.80;36.80;;;;;;4977072;28;20215;-67
2021/08/10 05:31:38;;;;;;;3.30;2.53;;;14.80;36.60;;;;;;4972885;28;20195;-67
2021/08/10 05:34:04;;;;;;;3.60;2.87;;;14.80;36.40;;;;;;4973813;28;20411;-67
2021/08/10 05:36:29;;;;;;;3.07;2.70;;;14.90;36.60;;;;;;4974729;28;20460;-67
2021/08/10 05:38:55;;;;;;;3.60;2.70;;;15.00;36.70;;;;;;4978231;28;20179;-67
2021/08/10 05:41:21;;;;;;;3.83;2.73;;;15.00;35.40;;;;;;4975287;28;20270;-68
2021/08/10 05:43:48;;;;;;;5.00;3.20;;;15.00;35.40;;;;;;4974610;28;20231;-68
2021/08/10 05:46:14;;;;;;;5.80;4.07;;;15.10;35.90;;;;;;4974290;28;20417;-68
2021/08/10 05:48:39;;;;;;;3.37;2.73;;;15.10;35.50;;;;;;4976099;28;20475;-68
2021/08/10 05:51:05;;;;;;;3.77;3.47;;;15.10;36.60;;;;;;4973726;28;20185;-68
2021/08/10 05:53:32;;;;;;;4.33;3.50;;;15.20;37.20;;;;;;4973550;28;20690;-68
2021/08/10 05:55:58;;;;;;;4.03;3.10;;;15.20;35.60;;;;;;4973487;28;20184;-68
2021/08/10 05:58:24;;;;;;;4.77;3.30;;;15.30;36.50;;;;;;4973176;28;20495;-68
2021/08/10 06:00:49;;;;;;;5.23;3.30;;;15.30;36.50;;;;;;4976811;28;20417;-68
2021/08/10 06:03:15;;;;;;;4.00;2.80;;;15.40;36.80;;;;;;4974103;28;20278;-68
2021/08/10 06:05:40;;;;;;;8.07;3.90;;;15.40;35.70;;;;;;4973498;28;20732;-68
2021/08/10 06:08:06;;;;;;;3.90;3.10;;;15.50;34.60;;;;;;4973220;28;20192;-68
2021/08/10 06:10:32;;;;;;;4.67;3.63;;;15.60;33.70;;;;;;4974433;28;20637;-68
2021/08/10 06:12:58;;;;;;;4.97;3.20;;;15.60;33.70;;;;;;4973938;28;20714;-68
2021/08/10 06:15:23;;;;;;;8.70;3.40;;;15.60;33.50;;;;;;4975150;28;20188;-68
2021/08/10 06:17:49;;;;;;;3.60;2.40;;;15.70;33.10;;;;;;4973122;28;20185;-68
2021/08/10 06:20:15;;;;;;;4.17;3.13;;;15.60;33.50;;;;;;4971646;28;20216;-67
2021/08/10 06:22:41;;;;;;;9.90;2.40;;;15.70;35.30;;;;;;4972799;28;20180;-68
2021/08/10 06:25:07;;;;;;;3.83;2.43;;;15.80;34.40;;;;;;4973972;28;20441;-67
2021/08/10 06:27:33;;;;;;;4.83;2.47;;;15.80;34.00;;;;;;4973523;28;20189;-68
2021/08/10 06:29:58;;;;;;;3.60;2.67;;;15.90;34.00;;;;;;4973174;28;20920;-67
2021/08/10 06:32:24;;;;;;;4.60;3.10;;;16.00;34.70;;;;;;4973985;28;20212;-67
2021/08/10 06:34:49;;;;;;;3.00;2.60;;;16.10;34.20;;;;;;4972550;28;20213;-67
2021/08/10 06:37:15;;;;;;;3.20;2.67;;;16.20;32.80;;;;;;4972232;28;20190;-67
2021/08/10 06:39:40;;;;;;;2.50;2.23;;;16.40;33.80;;;;;;4974225;28;20211;-68
2021/08/10 06:42:06;;;;;;;3.40;2.80;;;16.60;33.40;;;;;;4975224;28;20186;-68
2021/08/10 06:44:32;;;;;;;3.50;2.30;;;16.80;33.50;;;;;;4972670;28;20291;-67
2021/08/10 06:46:57;;;;;;;2.90;2.60;;;17.10;32.10;;;;;;4978799;28;20608;-68
2021/08/10 06:49:23;;;;;;;3.13;2.70;;;17.50;31.00;;;;;;4976682;28;20181;-69
2021/08/10 06:51:48;;;;;;;3.90;2.50;;;17.70;30.10;;;;;;4974169;28;20208;-68
2021/08/10 06:54:14;;;;;;;2.20;2.00;;;17.80;29.50;;;;;;4976523;28;20217;-68
2021/08/10 06:56:40;;;;;;;2.17;1.97;;;18.00;28.90;;;;;;4978189;28;20272;-68
2021/08/10 06:59:05;;;;;;;2.67;2.37;;;18.10;28.10;;;;;;4976151;28;20547;-69
2021/08/10 07:01:31;;;;;;;3.50;2.30;;;18.20;28.20;;;;;;4973892;28;20177;-68
2021/08/10 07:03:57;;;;;;;6.33;2.77;;;18.40;28.40;;;;;;4978316;28;20217;-68
2021/08/10 07:06:23;;;;;;;2.20;2.00;;;18.70;28.00;;;;;;4980315;28;20540;-68
2021/08/10 07:08:53;;;;;;;5.60;2.20;;;18.90;28.20;;;;;;4986075;28;20440;-68
2021/08/10 07:11:19;;;;;;;5.20;2.60;;;19.00;26.90;;;;;;4986361;28;20216;-68
2021/08/10 07:13:44;;;;;;;2.80;2.57;;;19.20;26.70;;;;;;4990931;28;20471;-68
2021/08/10 07:16:10;;;;;;;13.70;4.03;;;19.30;26.50;;;;;;5000341;28;20215;-69
2021/08/10 07:18:38;;;;;;;3.67;2.70;;;19.40;25.50;;;;;;4991131;28;20644;-68
2021/08/10 07:21:04;;;;;;;4.00;2.77;;;19.50;25.90;;;;;;4979115;28;20533;-68
2021/08/10 07:23:31;;;;;;;2.80;2.60;;;19.60;24.90;;;;;;4976571;28;20467;-68
2021/08/10 07:25:56;;;;;;;3.63;3.10;;;19.60;25.00;;;;;;4977789;28;20423;-68
2021/08/10 07:28:22;;;;;;;3.80;3.30;;;19.60;24.90;;;;;;4976985;28;20931;-68
2021/08/10 07:30:48;;;;;;;3.20;2.40;;;19.70;25.30;;;;;;4976351;28;20695;-68
2021/08/10 07:33:14;;;;;;;3.80;3.40;;;19.80;25.10;;;;;;4980893;28;20515;-68
2021/08/10 07:35:40;;;;;;;2.80;2.60;;;19.90;24.70;;;;;;4995460;28;20180;-68
2021/08/10 07:38:06;;;;;;;2.70;2.50;;;20.00;24.00;;;;;;4994921;28;20181;-69
2021/08/10 07:40:32;;;;;;;2.73;2.53;;;20.10;25.30;;;;;;4980597;28;20452;-68
2021/08/10 07:42:58;;;;;;;3.77;3.40;;;20.10;25.00;;;;;;4977906;28;20185;-68
2021/08/10 07:45:23;;;;;;;4.20;3.00;;;20.20;24.00;;;;;;4978177;28;20560;-68
2021/08/10 07:47:49;;;;;;;3.30;3.10;;;20.20;24.60;;;;;;4978160;28;20189;-68
2021/08/10 07:50:15;;;;;;;5.13;3.10;;;20.30;24.00;;;;;;4980465;28;20264;-68
2021/08/10 07:52:41;;;;;;;3.40;3.10;;;20.40;24.50;;;;;;4979990;28;20640;-68
2021/08/10 07:55:08;;;;;;;9.50;3.53;;;20.40;23.90;;;;;;4972194;28;20457;-68
2021/08/10 07:57:33;;;;;;;7.23;3.87;;;20.60;25.00;;;;;;4962928;28;20546;-68
2021/08/10 07:59:59;;;;;;;6.80;4.50;;;20.70;25.70;;;;;;4962186;28;20472;-68
2021/08/10 08:02:24;;;;;;;6.87;4.40;;;21.00;23.70;;;;;;4959882;28;20186;-69
2021/08/10 08:04:50;;;;;;;6.20;5.80;;;21.20;22.70;;;;;;4961187;28;20201;-70
2021/08/10 08:07:16;;;;;;;4.50;4.17;;;21.40;21.60;;;;;;4967641;28;20548;-68
2021/08/10 08:09:41;;;;;;;5.90;5.40;;;21.50;22.00;;;;;;4979179;28;20184;-67
2021/08/10 08:12:07;;;;;;;5.37;4.87;;;21.70;22.10;;;;;;4979731;28;20192;-67
2021/08/10 08:14:33;;;;;;;4.80;4.50;;;22.00;21.80;;;;;;4961721;28;20224;-67
2021/08/10 08:16:58;;;;;;;5.80;5.30;;;22.20;21.40;;;;;;4968712;28;20181;-69
2021/08/10 08:19:24;;;;;;;6.03;5.47;;;22.50;21.50;;;;;;4980179;28;20240;-68
2021/08/10 08:21:49;;;;;;;6.70;5.13;;;22.70;21.00;;;;;;4981384;28;20212;-69
2021/08/10 08:24:15;;;;;;;6.30;5.73;;;23.00;21.30;;;;;;4981316;28;20245;-70
2021/08/10 08:26:40;;;;;;;6.53;6.03;;;23.20;18.70;;;;;;4981080;28;20243;-68
2021/08/10 08:29:06;;;;;;;6.40;6.03;;;23.40;19.60;;;;;;4979128;28;20268;-69
2021/08/10 08:31:32;;;;;;;6.10;5.80;;;23.80;19.20;;;;;;4981643;28;20224;-68
2021/08/10 08:33:57;;;;;;;6.77;6.23;;;23.90;19.30;;;;;;4981286;28;20255;-69
2021/08/10 08:36:23;;;;;;;7.53;6.77;;;24.10;17.80;;;;;;4979631;28;20181;-68
2021/08/10 08:38:48;;;;;;;6.57;6.17;;;24.10;16.90;;;;;;4979091;28;20189;-68
2021/08/10 08:41:15;;;;;;;7.37;6.77;;;24.10;18.00;;;;;;4980376;28;20283;-68
2021/08/10 08:43:41;;;;;;;7.33;6.97;;;24.10;17.60;;;;;;4962580;28;20209;-68
2021/08/10 08:46:06;;;;;;;6.70;6.40;;;24.30;16.60;;;;;;4967780;28;20494;-68
2021/08/10 08:48:34;;;;;;;7.03;6.53;;;24.30;17.50;;;;;;4978769;28;20448;-69
2021/08/10 08:51:01;;;;;;;6.50;6.20;;;24.30;18.10;;;;;;4981253;28;20257;-68
2021/08/10 08:53:27;;;;;;;7.37;7.00;;;24.50;17.80;;;;;;4979186;28;20507;-68
2021/08/10 08:55:53;;;;;;;7.87;7.47;;;24.60;17.50;;;;;;4979393;28;20420;-67
2021/08/10 08:58:19;;;;;;;8.63;8.20;;;24.70;16.10;;;;;;4982394;28;20409;-68
2021/08/10 09:00:45;;;;;;;6.93;6.60;;;24.70;16.30;;;;;;4971764;28;20955;-68
2021/08/10 09:03:11;;;;;;;8.50;7.90;;;24.70;18.10;;;;;;4959259;28;20417;-68
2021/08/10 09:05:39;;;;;;;8.07;7.67;;;24.80;17.20;;;;;;4973441;28;20605;-68
2021/08/10 09:08:24;;;;;;;8.37;7.97;;;25.00;17.40;;;;;;4978168;28;20475;-69
2021/08/10 09:11:01;;;;;;;9.10;8.50;;;25.10;17.00;;;;;;4979909;28;20866;-69
2021/08/10 09:13:27;;;;;;;9.43;8.53;;;25.20;16.50;;;;;;4976649;28;20837;-69
2021/08/10 09:15:58;;;;;;;8.90;8.50;;;25.30;15.60;;;;;;4974367;28;20433;-69
2021/08/10 09:18:23;;;;;;;9.57;9.17;;;25.30;15.70;;;;;;4978133;28;20496;-69
2021/08/10 09:21:00;;;;;;;9.40;9.00;;;25.30;15.70;;;;;;4977206;28;20972;-69
2021/08/10 09:23:47;;;;;;;9.40;8.93;;;25.40;15.10;;;;;;4976620;28;20212;-69
2021/08/10 09:26:20;;;;;;;9.30;8.77;;;25.40;15.00;;;;;;4977364;28;20507;-69
2021/08/10 09:28:48;;;;;;;9.80;9.40;;;25.50;15.00;;;;;;4993838;28;20491;-69
2021/08/10 09:31:33;;;;;;;10.93;10.00;;;25.50;13.50;;;;;;4994038;28;20427;-69
2021/08/10 09:34:02;;;;;;;9.80;9.40;;;25.30;15.60;;;;;;4969845;28;20483;-70
2021/08/10 09:36:28;;;;;;;9.80;9.40;;;25.40;15.70;;;;;;4957217;28;20441;-69
2021/08/10 09:38:54;;;;;;;10.10;9.60;;;25.50;15.60;;;;;;4965709;28;20417;-70
2021/08/10 09:41:20;;;;;;;8.63;8.13;;;25.70;15.70;;;;;;4977949;28;20492;-69
2021/08/10 09:43:45;;;;;;;9.63;9.07;;;25.90;17.20;;;;;;4974051;28;20496;-69
2021/08/10 09:46:19;;;;;;;10.00;9.60;;;25.90;14.80;;;;;;4974020;28;20305;-69
2021/08/10 09:48:51;;;;;;;9.87;9.47;;;26.00;13.60;;;;;;4979314;28;20276;-69
2021/08/10 09:51:23;;;;;;;10.63;10.13;;;26.30;14.60;;;;;;4975116;28;20439;-70
2021/08/10 09:53:57;;;;;;;10.70;10.20;;;26.30;13.40;;;;;;4972282;28;20468;-69
2021/08/10 09:56:45;;;;;;;11.13;10.63;;;26.30;13.00;;;;;;4974033;28;20420;-70
2021/08/10 09:59:12;;;;;;;12.57;11.50;;;26.00;13.30;;;;;;4965086;28;20437;-69
2021/08/10 10:01:43;;;;;;;11.20;10.60;;;25.90;13.40;;;;;;4985759;28;20420;-70
2021/08/10 10:04:09;;;;;;;11.13;10.50;;;25.90;13.20;;;;;;4991845;28;21025;-69
2021/08/10 10:06:35;;;;;;;10.00;9.60;;;25.80;12.90;;;;;;4995716;28;20443;-69
2021/08/10 10:09:02;;;;;;;10.03;9.63;;;25.90;14.80;;;;;;4995652;28;20867;-68
2021/08/10 10:11:31;;;;;;;10.73;10.33;;;26.10;14.80;;;;;;4978524;28;20600;-69
2021/08/10 10:13:57;;;;;;;10.90;10.40;;;26.20;14.00;;;;;;4975275;28;20483;-69
2021/08/10 10:16:22;;;;;;;12.03;11.43;;;26.50;14.80;;;;;;4977983;28;20922;-69
2021/08/10 10:18:48;;;;;;;11.70;11.20;;;26.50;12.80;;;;;;4975722;28;20471;-69
2021/08/10 10:21:21;;;;;;;11.80;11.20;;;26.40;14.20;;;;;;4991316;28;20185;-69
2021/08/10 10:23:51;;;;;;;12.40;11.90;;;26.50;13.70;;;;;;4994949;28;20200;-69
2021/08/10 10:26:18;;;;;;;12.87;12.37;;;26.40;12.90;;;;;;4995981;28;20938;-69
2021/08/10 10:28:44;;;;;;;11.90;11.40;;;26.40;11.70;;;;;;4995070;28;20852;-69
2021/08/10 10:31:10;;;;;;;12.67;12.07;;;26.50;13.80;;;;;;4981148;28;20511;-69
2021/08/10 10:33:36;;;;;;;13.80;12.73;;;26.60;12.10;;;;;;4986642;28;20533;-69
2021/08/10 10:36:02;;;;;;;13.60;12.70;;;26.80;12.50;;;;;;4976750;28;20181;-69
2021/08/10 10:38:29;;;;;;;13.40;12.80;;;26.90;12.00;;;;;;4977035;28;20409;-69
2021/08/10 10:40:56;;;;;;;12.83;12.23;;;27.00;12.00;;;;;;4991084;28;20431;-69
2021/08/10 10:43:26;;;;;;;13.40;12.90;;;27.10;12.60;;;;;;4996554;28;20812;-69
2021/08/10 10:45:54;;;;;;;13.23;12.73;;;27.20;11.80;;;;;;4981597;28;20473;-69
2021/08/10 10:48:22;;;;;;;13.33;12.73;;;27.10;12.10;;;;;;4958787;28;20436;-69
2021/08/10 10:51:03;;;;;;;13.07;12.57;;;27.20;12.90;;;;;;4969987;28;20508;-69
2021/08/10 10:53:29;;;;;;;14.63;14.00;;;27.30;12.80;;;;;;4978448;28;20503;-69
2021/08/10 10:55:55;;;;;;;13.97;13.33;;;27.30;9.80;;;;;;4992296;28;20442;-69
2021/08/10 10:58:26;;;;;;;15.17;14.37;;;27.20;11.10;;;;;;4998309;28;20494;-69
2021/08/10 11:01:17;;;;;;;14.03;13.43;;;27.20;11.40;;;;;;4997782;28;20474;-69
2021/08/10 11:04:02;;;;;;;21.23;14.67;;;27.30;10.90;;;;;;4975839;28;20445;-69
2021/08/10 11:06:34;;;;;;;14.20;13.60;;;27.30;11.30;;;;;;4972787;28;20427;-69
2021/08/10 11:09:02;;;;;;;14.40;13.80;;;27.30;11.00;;;;;;4976075;28;20409;-69
2021/08/10 11:11:57;;;;;;;14.20;13.60;;;27.10;11.30;;;;;;4978818;28;20902;-69
2021/08/10 11:14:38;;;;;;;15.40;14.40;;;27.00;10.90;;;;;;4972272;28;20504;-69
2021/08/10 11:17:14;;;;;;;14.70;14.10;;;26.80;10.90;;;;;;4974600;28;20451;-69
2021/08/10 11:19:44;;;;;;;14.70;14.10;;;26.70;11.80;;;;;;4974749;28;20412;-69
2021/08/10 11:22:15;;;;;;;15.20;14.03;;;26.50;11.80;;;;;;4978630;28;20411;-70
2021/08/10 11:24:43;;;;;;;14.17;13.17;;;26.50;12.50;;;;;;4980345;28;20985;-71
2021/08/10 11:27:29;;;;;;;14.53;13.90;;;26.50;12.50;;;;;;5001195;28;20463;-70
2021/08/10 11:29:55;;;;;;;16.40;15.17;;;26.50;13.20;;;;;;5001625;28;20420;-69
2021/08/10 11:32:38;;;;;;;14.50;13.80;;;26.40;11.70;;;;;;5004363;28;20969;-70
2021/08/10 11:35:29;;;;;;;16.00;13.87;;;26.30;12.30;;;;;;4977019;28;20208;-69
2021/08/10 11:38:07;;;;;;;15.20;14.50;;;26.50;12.80;;;;;;4982436;28;20420;-69
2021/08/10 11:40:57;;;;;;;14.80;13.73;;;26.60;11.80;;;;;;4981443;28;20858;-69
2021/08/10 11:43:46;;;;;;;14.00;13.50;;;26.50;11.80;;;;;;4982575;28;20452;-69
2021/08/10 11:46:17;;;;;;;14.93;13.90;;;26.70;11.90;;;;;;4996380;28;20847;-69
2021/08/10 11:48:47;;;;;;;14.63;14.03;;;26.90;11.90;;;;;;5005005;28;20416;-70
2021/08/10 11:51:16;;;;;;;15.50;14.80;;;26.90;11.20;;;;;;5001336;28;20542;-70
2021/08/10 11:53:41;;;;;;;14.77;14.13;;;26.90;10.50;;;;;;5003300;28;20467;-70
2021/08/10 11:56:31;;;;;;;16.00;15.30;;;26.70;11.90;;;;;;5001366;28;20423;-70
2021/08/10 11:58:58;;;;;;;15.23;14.53;;;26.50;11.80;;;;;;5002907;28;20180;-70
2021/08/10 12:01:24;;;;;;;14.90;14.10;;;26.60;11.80;;;;;;5000389;28;20424;-70
2021/08/10 12:03:50;;;;;;;14.20;13.60;;;26.80;11.90;;;;;;5001158;28;20522;-70
2021/08/10 12:06:16;;;;;;;15.67;14.97;;;26.90;12.00;;;;;;4990118;28;20440;-70
2021/08/10 12:08:42;;;;;;;15.20;14.60;;;27.00;10.70;;;;;;4980692;28;20413;-70
2021/08/10 12:11:09;;;;;;;15.80;15.20;;;26.90;10.30;;;;;;4979475;28;20993;-69
2021/08/10 12:13:36;;;;;;;15.93;15.23;;;26.80;10.80;;;;;;4980698;28;20215;-69
2021/08/10 12:16:08;;;;;;;15.53;14.63;;;26.70;10.80;;;;;;4981455;28;20934;-69
2021/08/10 12:18:46;;;;;;;15.10;14.47;;;26.60;11.50;;;;;;4980901;28;20408;-70
2021/08/10 12:21:11;;;;;;;14.97;14.27;;;26.70;11.30;;;;;;4980314;28;20407;-70
2021/08/10 12:23:42;;;;;;;15.50;14.90;;;26.90;12.00;;;;;;4979742;28;20444;-70
2021/08/10 12:26:13;;;;;;;15.00;14.40;;;27.00;10.20;;;;;;4978226;28;20208;-70
2021/08/10 12:29:04;;;;;;;16.40;15.03;;;27.10;11.70;;;;;;4979455;28;20797;-70
2021/08/10 12:31:34;;;;;;;15.50;14.90;;;27.40;11.60;;;;;;4978319;28;20481;-70
2021/08/10 12:33:59;;;;;;;15.77;15.17;;;27.50;11.50;;;;;;4977483;28;20895;-70
2021/08/10 12:36:26;;;;;;;16.40;15.70;;;27.70;10.20;;;;;;4990560;28;20466;-70
2021/08/10 12:38:53;;;;;;;15.60;14.90;;;27.80;9.70;;;;;;4998423;28;20240;-70
2021/08/10 12:41:24;;;;;;;16.43;15.63;;;27.60;10.50;;;;;;4998302;28;20486;-70
2021/08/10 12:43:51;;;;;;;16.70;16.00;;;27.60;9.40;;;;;;4998738;28;20476;-69
2021/08/10 12:46:28;;;;;;;16.77;15.80;;;27.70;9.90;;;;;;4985931;28;20456;-69
2021/08/10 12:49:10;;;;;;;16.37;15.67;;;27.50;10.50;;;;;;4978867;28;20523;-70